sensor_id;sensor_type;location;lat;lon;timestamp;temperature;humidity
16744;DHT22;71724;-33.900;151.182;2024-01-11T00:00:11;26.80;82.20
16744;DHT22;71724;-33.900;151.182;2024-01-11T00:02:38;26.80;82.20
16744;DHT22;71724;-33.900;151.182;2024-01-11T00:05:06;26.80;82.40
16744;DHT22;71724;-33.900;151.182;2024-01-11T00:07:37;26.80;82.40
16744;DHT22;71724;-33.900;151.182;2024-01-11T00:10:04;26.80;82.40
16744;DHT22;71724;-33.900;151.182;2024-01-11T00:12:32;26.80;82.30
16744;DHT22;71724;-33.900;151.182;2024-01-11T00:14:59;26.80;82.10
16744;DHT22;71724;-33.900;151.182;2024-01-11T00:17:26;26.80;82.00
16744;DHT22;71724;-33.900;151.182;2024-01-11T00:19:54;26.80;82.10
16744;DHT22;71724;-33.900;151.182;2024-01-11T00:22:21;26.80;81.90
16744;DHT22;71724;-33.900;151.182;2024-01-11T00:24:48;26.80;81.70
16744;DHT22;71724;-33.900;151.182;2024-01-11T00:27:16;26.80;81.70
16744;DHT22;71724;-33.900;151.182;2024-01-11T00:29:43;26.80;81.80
16744;DHT22;71724;-33.900;151.182;2024-01-11T00:32:11;26.90;81.70
16744;DHT22;71724;-33.900;151.182;2024-01-11T00:34:38;26.80;81.60
16744;DHT22;71724;-33.900;151.182;2024-01-11T00:37:05;26.80;81.50
16744;DHT22;71724;-33.900;151.182;2024-01-11T00:39:34;26.90;81.40
16744;DHT22;71724;-33.900;151.182;2024-01-11T00:42:01;26.80;81.30
16744;DHT22;71724;-33.900;151.182;2024-01-11T00:44:29;26.90;81.40
16744;DHT22;71724;-33.900;151.182;2024-01-11T00:46:56;26.90;81.10
16744;DHT22;71724;-33.900;151.182;2024-01-11T00:49:23;27.00;81.20
16744;DHT22;71724;-33.900;151.182;2024-01-11T00:51:51;26.90;81.00
16744;DHT22;71724;-33.900;151.182;2024-01-11T00:54:18;26.90;80.80
16744;DHT22;71724;-33.900;151.182;2024-01-11T00:56:47;26.90;80.90
16744;DHT22;71724;-33.900;151.182;2024-01-11T00:59:14;26.90;80.90
16744;DHT22;71724;-33.900;151.182;2024-01-11T01:01:50;26.90;80.80
16744;DHT22;71724;-33.900;151.182;2024-01-11T01:04:17;26.80;80.80
16744;DHT22;71724;-33.900;151.182;2024-01-11T01:06:45;26.90;81.00
16744;DHT22;71724;-33.900;151.182;2024-01-11T01:09:13;27.00;80.90
16744;DHT22;71724;-33.900;151.182;2024-01-11T01:11:43;27.00;80.70
16744;DHT22;71724;-33.900;151.182;2024-01-11T01:14:10;27.10;80.50
16744;DHT22;71724;-33.900;151.182;2024-01-11T01:16:38;27.30;80.20
16744;DHT22;71724;-33.900;151.182;2024-01-11T01:19:10;27.30;79.70
16744;DHT22;71724;-33.900;151.182;2024-01-11T01:21:38;27.20;79.20
16744;DHT22;71724;-33.900;151.182;2024-01-11T01:24:07;27.20;79.40
16744;DHT22;71724;-33.900;151.182;2024-01-11T01:26:34;27.30;79.20
16744;DHT22;71724;-33.900;151.182;2024-01-11T01:29:02;27.20;79.40
16744;DHT22;71724;-33.900;151.182;2024-01-11T01:31:29;27.30;79.30
16744;DHT22;71724;-33.900;151.182;2024-01-11T01:34:04;27.40;79.00
16744;DHT22;71724;-33.900;151.182;2024-01-11T01:36:31;27.40;78.80
16744;DHT22;71724;-33.900;151.182;2024-01-11T01:38:59;27.40;78.60
16744;DHT22;71724;-33.900;151.182;2024-01-11T01:41:26;27.50;78.60
16744;DHT22;71724;-33.900;151.182;2024-01-11T01:43:53;27.50;78.70
16744;DHT22;71724;-33.900;151.182;2024-01-11T01:46:24;27.40;78.40
16744;DHT22;71724;-33.900;151.182;2024-01-11T01:48:55;27.40;78.50
16744;DHT22;71724;-33.900;151.182;2024-01-11T01:51:26;27.40;78.60
16744;DHT22;71724;-33.900;151.182;2024-01-11T01:53:54;27.40;78.50
16744;DHT22;71724;-33.900;151.182;2024-01-11T01:56:23;27.50;78.50
16744;DHT22;71724;-33.900;151.182;2024-01-11T01:58:52;27.60;78.60
16744;DHT22;71724;-33.900;151.182;2024-01-11T02:01:23;27.70;78.10
16744;DHT22;71724;-33.900;151.182;2024-01-11T02:03:55;27.80;77.90
16744;DHT22;71724;-33.900;151.182;2024-01-11T02:06:23;27.80;77.60
16744;DHT22;71724;-33.900;151.182;2024-01-11T02:08:55;27.90;77.20
16744;DHT22;71724;-33.900;151.182;2024-01-11T02:11:23;27.90;76.50
16744;DHT22;71724;-33.900;151.182;2024-01-11T02:13:51;27.90;76.90
16744;DHT22;71724;-33.900;151.182;2024-01-11T02:16:18;27.90;76.70
16744;DHT22;71724;-33.900;151.182;2024-01-11T02:18:46;27.90;76.70
16744;DHT22;71724;-33.900;151.182;2024-01-11T02:21:15;27.90;76.60
16744;DHT22;71724;-33.900;151.182;2024-01-11T02:23:52;28.00;76.50
16744;DHT22;71724;-33.900;151.182;2024-01-11T02:26:20;28.00;76.30
16744;DHT22;71724;-33.900;151.182;2024-01-11T02:28:49;28.10;76.20
16744;DHT22;71724;-33.900;151.182;2024-01-11T02:31:16;28.20;75.70
16744;DHT22;71724;-33.900;151.182;2024-01-11T02:33:44;28.30;75.50
16744;DHT22;71724;-33.900;151.182;2024-01-11T02:36:16;28.30;75.70
16744;DHT22;71724;-33.900;151.182;2024-01-11T02:38:48;28.40;75.40
16744;DHT22;71724;-33.900;151.182;2024-01-11T02:41:17;28.50;74.90
16744;DHT22;71724;-33.900;151.182;2024-01-11T02:43:48;28.50;74.90
16744;DHT22;71724;-33.900;151.182;2024-01-11T02:46:16;28.60;74.50
16744;DHT22;71724;-33.900;151.182;2024-01-11T02:48:44;28.50;74.50
16744;DHT22;71724;-33.900;151.182;2024-01-11T02:51:11;28.50;74.50
16744;DHT22;71724;-33.900;151.182;2024-01-11T02:53:40;28.50;74.40
16744;DHT22;71724;-33.900;151.182;2024-01-11T02:56:08;28.50;74.10
16744;DHT22;71724;-33.900;151.182;2024-01-11T02:58:35;28.30;74.10
16744;DHT22;71724;-33.900;151.182;2024-01-11T03:01:03;28.40;74.70
16744;DHT22;71724;-33.900;151.182;2024-01-11T03:03:31;28.40;74.60
16744;DHT22;71724;-33.900;151.182;2024-01-11T03:05:58;28.40;74.80
16744;DHT22;71724;-33.900;151.182;2024-01-11T03:08:26;28.50;74.70
16744;DHT22;71724;-33.900;151.182;2024-01-11T03:10:54;28.50;74.30
16744;DHT22;71724;-33.900;151.182;2024-01-11T03:13:21;28.50;74.50
16744;DHT22;71724;-33.900;151.182;2024-01-11T03:15:49;28.60;74.10
16744;DHT22;71724;-33.900;151.182;2024-01-11T03:18:16;28.50;73.80
16744;DHT22;71724;-33.900;151.182;2024-01-11T03:20:45;28.50;74.10
16744;DHT22;71724;-33.900;151.182;2024-01-11T03:23:12;28.50;74.30
16744;DHT22;71724;-33.900;151.182;2024-01-11T03:25:39;28.50;74.30
16744;DHT22;71724;-33.900;151.182;2024-01-11T03:28:07;28.60;74.40
16744;DHT22;71724;-33.900;151.182;2024-01-11T03:30:34;28.60;74.10
16744;DHT22;71724;-33.900;151.182;2024-01-11T03:33:02;28.60;73.80
16744;DHT22;71724;-33.900;151.182;2024-01-11T03:35:29;28.60;73.90
16744;DHT22;71724;-33.900;151.182;2024-01-11T03:37:56;28.60;73.70
16744;DHT22;71724;-33.900;151.182;2024-01-11T03:40:24;28.50;73.80
16744;DHT22;71724;-33.900;151.182;2024-01-11T03:42:52;28.50;74.00
16744;DHT22;71724;-33.900;151.182;2024-01-11T03:45:20;28.40;74.00
16744;DHT22;71724;-33.900;151.182;2024-01-11T03:47:48;28.40;74.20
16744;DHT22;71724;-33.900;151.182;2024-01-11T03:50:15;28.30;74.30
16744;DHT22;71724;-33.900;151.182;2024-01-11T03:52:46;28.30;74.70
16744;DHT22;71724;-33.900;151.182;2024-01-11T03:55:14;28.30;74.80
16744;DHT22;71724;-33.900;151.182;2024-01-11T03:57:41;28.30;75.00
16744;DHT22;71724;-33.900;151.182;2024-01-11T04:00:11;28.40;75.00
16744;DHT22;71724;-33.900;151.182;2024-01-11T04:02:38;28.40;75.00
16744;DHT22;71724;-33.900;151.182;2024-01-11T04:05:06;28.50;74.70
16744;DHT22;71724;-33.900;151.182;2024-01-11T04:07:33;28.60;74.70
16744;DHT22;71724;-33.900;151.182;2024-01-11T04:10:02;28.60;74.60
16744;DHT22;71724;-33.900;151.182;2024-01-11T04:12:29;28.70;74.30
16744;DHT22;71724;-33.900;151.182;2024-01-11T04:14:57;28.70;74.40
16744;DHT22;71724;-33.900;151.182;2024-01-11T04:17:24;28.70;74.20
16744;DHT22;71724;-33.900;151.182;2024-01-11T04:19:52;28.60;73.70
16744;DHT22;71724;-33.900;151.182;2024-01-11T04:22:20;28.60;73.80
16744;DHT22;71724;-33.900;151.182;2024-01-11T04:24:48;28.50;73.60
16744;DHT22;71724;-33.900;151.182;2024-01-11T04:27:15;28.50;73.80
16744;DHT22;71724;-33.900;151.182;2024-01-11T04:29:43;28.40;73.60
16744;DHT22;71724;-33.900;151.182;2024-01-11T04:32:10;28.30;73.80
16744;DHT22;71724;-33.900;151.182;2024-01-11T04:34:37;28.20;73.90
16744;DHT22;71724;-33.900;151.182;2024-01-11T04:37:05;28.20;74.20
16744;DHT22;71724;-33.900;151.182;2024-01-11T04:39:33;28.20;74.40
16744;DHT22;71724;-33.900;151.182;2024-01-11T04:42:00;28.20;74.40
16744;DHT22;71724;-33.900;151.182;2024-01-11T04:44:28;28.20;74.40
16744;DHT22;71724;-33.900;151.182;2024-01-11T04:46:56;28.10;74.60
16744;DHT22;71724;-33.900;151.182;2024-01-11T04:49:23;28.10;74.80
16744;DHT22;71724;-33.900;151.182;2024-01-11T04:51:51;28.10;75.10
16744;DHT22;71724;-33.900;151.182;2024-01-11T04:54:18;28.10;75.30
16744;DHT22;71724;-33.900;151.182;2024-01-11T04:56:46;28.10;75.10
16744;DHT22;71724;-33.900;151.182;2024-01-11T04:59:14;28.10;75.30
16744;DHT22;71724;-33.900;151.182;2024-01-11T05:01:41;28.10;75.60
16744;DHT22;71724;-33.900;151.182;2024-01-11T05:04:09;28.20;75.50
16744;DHT22;71724;-33.900;151.182;2024-01-11T05:06:36;28.30;75.30
16744;DHT22;71724;-33.900;151.182;2024-01-11T05:09:04;28.30;75.20
16744;DHT22;71724;-33.900;151.182;2024-01-11T05:11:31;28.30;75.10
16744;DHT22;71724;-33.900;151.182;2024-01-11T05:13:58;28.30;74.90
16744;DHT22;71724;-33.900;151.182;2024-01-11T05:16:27;28.30;74.90
16744;DHT22;71724;-33.900;151.182;2024-01-11T05:18:58;28.30;74.70
16744;DHT22;71724;-33.900;151.182;2024-01-11T05:21:26;28.40;74.90
16744;DHT22;71724;-33.900;151.182;2024-01-11T05:23:54;28.40;75.00
16744;DHT22;71724;-33.900;151.182;2024-01-11T05:26:22;28.30;74.80
16744;DHT22;71724;-33.900;151.182;2024-01-11T05:28:49;28.40;74.80
16744;DHT22;71724;-33.900;151.182;2024-01-11T05:31:16;28.40;74.70
16744;DHT22;71724;-33.900;151.182;2024-01-11T05:33:44;28.40;74.70
16744;DHT22;71724;-33.900;151.182;2024-01-11T05:36:11;28.40;74.90
16744;DHT22;71724;-33.900;151.182;2024-01-11T05:38:40;28.40;75.00
16744;DHT22;71724;-33.900;151.182;2024-01-11T05:41:07;28.40;75.00
16744;DHT22;71724;-33.900;151.182;2024-01-11T05:43:35;28.30;75.10
16744;DHT22;71724;-33.900;151.182;2024-01-11T05:46:02;28.30;75.30
16744;DHT22;71724;-33.900;151.182;2024-01-11T05:48:29;28.30;75.30
16744;DHT22;71724;-33.900;151.182;2024-01-11T05:50:57;28.30;75.40
16744;DHT22;71724;-33.900;151.182;2024-01-11T05:53:24;28.30;75.50
16744;DHT22;71724;-33.900;151.182;2024-01-11T05:55:54;28.30;75.70
16744;DHT22;71724;-33.900;151.182;2024-01-11T05:58:21;28.20;75.80
16744;DHT22;71724;-33.900;151.182;2024-01-11T06:00:48;28.20;75.80
16744;DHT22;71724;-33.900;151.182;2024-01-11T06:03:16;28.20;75.80
16744;DHT22;71724;-33.900;151.182;2024-01-11T06:05:43;28.10;75.90
16744;DHT22;71724;-33.900;151.182;2024-01-11T06:08:11;28.10;75.90
16744;DHT22;71724;-33.900;151.182;2024-01-11T06:10:39;28.10;76.00
16744;DHT22;71724;-33.900;151.182;2024-01-11T06:13:06;28.10;76.00
16744;DHT22;71724;-33.900;151.182;2024-01-11T06:15:34;28.00;76.00
16744;DHT22;71724;-33.900;151.182;2024-01-11T06:18:02;28.00;76.20
16744;DHT22;71724;-33.900;151.182;2024-01-11T06:20:31;28.00;76.40
16744;DHT22;71724;-33.900;151.182;2024-01-11T06:22:58;28.00;76.50
16744;DHT22;71724;-33.900;151.182;2024-01-11T06:25:26;28.00;76.20
16744;DHT22;71724;-33.900;151.182;2024-01-11T06:27:54;28.00;76.40
16744;DHT22;71724;-33.900;151.182;2024-01-11T06:30:22;28.00;76.50
16744;DHT22;71724;-33.900;151.182;2024-01-11T06:32:49;27.90;76.60
16744;DHT22;71724;-33.900;151.182;2024-01-11T06:35:16;27.80;76.60
16744;DHT22;71724;-33.900;151.182;2024-01-11T06:37:48;27.80;76.80
16744;DHT22;71724;-33.900;151.182;2024-01-11T06:40:15;27.70;76.90
16744;DHT22;71724;-33.900;151.182;2024-01-11T06:42:43;27.80;77.00
16744;DHT22;71724;-33.900;151.182;2024-01-11T06:45:14;27.80;77.20
16744;DHT22;71724;-33.900;151.182;2024-01-11T06:47:41;27.80;77.30
16744;DHT22;71724;-33.900;151.182;2024-01-11T06:50:11;27.90;77.10
16744;DHT22;71724;-33.900;151.182;2024-01-11T06:52:38;27.90;76.80
16744;DHT22;71724;-33.900;151.182;2024-01-11T06:55:07;27.90;76.60
16744;DHT22;71724;-33.900;151.182;2024-01-11T06:57:35;27.80;76.90
16744;DHT22;71724;-33.900;151.182;2024-01-11T07:00:02;27.80;76.80
16744;DHT22;71724;-33.900;151.182;2024-01-11T07:02:30;27.80;76.90
16744;DHT22;71724;-33.900;151.182;2024-01-11T07:04:58;27.70;77.10
16744;DHT22;71724;-33.900;151.182;2024-01-11T07:07:26;27.70;77.20
16744;DHT22;71724;-33.900;151.182;2024-01-11T07:09:54;27.70;77.40
16744;DHT22;71724;-33.900;151.182;2024-01-11T07:12:22;27.70;77.20
16744;DHT22;71724;-33.900;151.182;2024-01-11T07:14:49;27.70;77.20
16744;DHT22;71724;-33.900;151.182;2024-01-11T07:17:19;27.70;77.20
16744;DHT22;71724;-33.900;151.182;2024-01-11T07:19:46;27.60;77.20
16744;DHT22;71724;-33.900;151.182;2024-01-11T07:22:13;27.60;77.20
16744;DHT22;71724;-33.900;151.182;2024-01-11T07:24:41;27.60;77.40
16744;DHT22;71724;-33.900;151.182;2024-01-11T07:27:09;27.60;77.30
16744;DHT22;71724;-33.900;151.182;2024-01-11T07:29:36;27.60;77.30
16744;DHT22;71724;-33.900;151.182;2024-01-11T07:32:06;27.50;77.30
16744;DHT22;71724;-33.900;151.182;2024-01-11T07:34:34;27.50;77.40
16744;DHT22;71724;-33.900;151.182;2024-01-11T07:37:02;27.50;77.40
16744;DHT22;71724;-33.900;151.182;2024-01-11T07:39:31;27.50;77.50
16744;DHT22;71724;-33.900;151.182;2024-01-11T07:41:58;27.40;77.60
16744;DHT22;71724;-33.900;151.182;2024-01-11T07:44:26;27.40;77.70
16744;DHT22;71724;-33.900;151.182;2024-01-11T07:46:53;27.40;77.70
16744;DHT22;71724;-33.900;151.182;2024-01-11T07:49:21;27.30;77.80
16744;DHT22;71724;-33.900;151.182;2024-01-11T07:51:49;27.30;77.80
16744;DHT22;71724;-33.900;151.182;2024-01-11T07:54:16;27.40;77.80
16744;DHT22;71724;-33.900;151.182;2024-01-11T07:56:44;27.30;78.00
16744;DHT22;71724;-33.900;151.182;2024-01-11T07:59:11;27.30;78.20
16744;DHT22;71724;-33.900;151.182;2024-01-11T08:01:41;27.30;78.20
16744;DHT22;71724;-33.900;151.182;2024-01-11T08:04:08;27.30;78.20
16744;DHT22;71724;-33.900;151.182;2024-01-11T08:06:37;27.30;78.30
16744;DHT22;71724;-33.900;151.182;2024-01-11T08:09:04;27.30;78.30
16744;DHT22;71724;-33.900;151.182;2024-01-11T08:11:32;27.30;78.30
16744;DHT22;71724;-33.900;151.182;2024-01-11T08:13:59;27.30;78.30
16744;DHT22;71724;-33.900;151.182;2024-01-11T08:16:27;27.30;78.40
16744;DHT22;71724;-33.900;151.182;2024-01-11T08:18:54;27.30;78.60
16744;DHT22;71724;-33.900;151.182;2024-01-11T08:21:21;27.30;78.60
16744;DHT22;71724;-33.900;151.182;2024-01-11T08:23:50;27.30;78.80
16744;DHT22;71724;-33.900;151.182;2024-01-11T08:26:17;27.20;78.80
16744;DHT22;71724;-33.900;151.182;2024-01-11T08:28:48;27.20;78.90
16744;DHT22;71724;-33.900;151.182;2024-01-11T08:31:16;27.20;78.90
16744;DHT22;71724;-33.900;151.182;2024-01-11T08:33:43;27.20;79.00
16744;DHT22;71724;-33.900;151.182;2024-01-11T08:36:13;27.20;79.30
16744;DHT22;71724;-33.900;151.182;2024-01-11T08:38:41;27.10;79.50
16744;DHT22;71724;-33.900;151.182;2024-01-11T08:41:09;27.10;79.70
16744;DHT22;71724;-33.900;151.182;2024-01-11T08:43:36;27.00;79.70
16744;DHT22;71724;-33.900;151.182;2024-01-11T08:46:04;27.00;79.70
16744;DHT22;71724;-33.900;151.182;2024-01-11T08:48:31;27.00;80.00
16744;DHT22;71724;-33.900;151.182;2024-01-11T08:50:58;27.10;80.00
16744;DHT22;71724;-33.900;151.182;2024-01-11T08:53:26;27.00;80.10
16744;DHT22;71724;-33.900;151.182;2024-01-11T08:55:53;27.10;80.50
16744;DHT22;71724;-33.900;151.182;2024-01-11T08:58:21;27.00;80.60
16744;DHT22;71724;-33.900;151.182;2024-01-11T09:00:54;27.00;80.60
16744;DHT22;71724;-33.900;151.182;2024-01-11T09:03:22;27.00;81.10
16744;DHT22;71724;-33.900;151.182;2024-01-11T09:05:50;26.90;81.30
16744;DHT22;71724;-33.900;151.182;2024-01-11T09:08:18;26.80;81.40
16744;DHT22;71724;-33.900;151.182;2024-01-11T09:10:45;26.80;81.50
16744;DHT22;71724;-33.900;151.182;2024-01-11T09:13:13;26.80;81.80
16744;DHT22;71724;-33.900;151.182;2024-01-11T09:15:44;26.70;81.80
16744;DHT22;71724;-33.900;151.182;2024-01-11T09:18:11;26.70;81.90
16744;DHT22;71724;-33.900;151.182;2024-01-11T09:20:39;26.70;82.00
16744;DHT22;71724;-33.900;151.182;2024-01-11T09:23:06;26.70;81.90
16744;DHT22;71724;-33.900;151.182;2024-01-11T09:25:33;26.70;82.00
16744;DHT22;71724;-33.900;151.182;2024-01-11T09:28:03;26.70;81.90
16744;DHT22;71724;-33.900;151.182;2024-01-11T09:30:31;26.70;81.90
16744;DHT22;71724;-33.900;151.182;2024-01-11T09:32:58;26.70;81.90
16744;DHT22;71724;-33.900;151.182;2024-01-11T09:35:26;26.60;81.80
16744;DHT22;71724;-33.900;151.182;2024-01-11T09:37:54;26.60;81.70
16744;DHT22;71724;-33.900;151.182;2024-01-11T09:40:21;26.70;81.60
16744;DHT22;71724;-33.900;151.182;2024-01-11T09:42:49;26.70;81.50
16744;DHT22;71724;-33.900;151.182;2024-01-11T09:45:17;26.70;81.50
16744;DHT22;71724;-33.900;151.182;2024-01-11T09:47:45;26.60;81.60
16744;DHT22;71724;-33.900;151.182;2024-01-11T09:50:15;26.70;81.50
16744;DHT22;71724;-33.900;151.182;2024-01-11T09:52:48;26.70;81.40
16744;DHT22;71724;-33.900;151.182;2024-01-11T09:55:17;26.70;81.60
16744;DHT22;71724;-33.900;151.182;2024-01-11T09:57:48;26.70;81.60
16744;DHT22;71724;-33.900;151.182;2024-01-11T10:00:20;26.60;81.70
16744;DHT22;71724;-33.900;151.182;2024-01-11T10:02:48;26.60;81.70
16744;DHT22;71724;-33.900;151.182;2024-01-11T10:05:19;26.60;81.60
16744;DHT22;71724;-33.900;151.182;2024-01-11T10:07:47;26.60;81.70
16744;DHT22;71724;-33.900;151.182;2024-01-11T10:10:14;26.60;81.50
16744;DHT22;71724;-33.900;151.182;2024-01-11T10:12:45;26.60;81.50
16744;DHT22;71724;-33.900;151.182;2024-01-11T10:15:14;26.60;81.40
16744;DHT22;71724;-33.900;151.182;2024-01-11T10:17:45;26.60;81.40
16744;DHT22;71724;-33.900;151.182;2024-01-11T10:20:16;26.60;81.40
16744;DHT22;71724;-33.900;151.182;2024-01-11T10:22:50;26.50;81.30
16744;DHT22;71724;-33.900;151.182;2024-01-11T10:25:19;26.50;81.30
16744;DHT22;71724;-33.900;151.182;2024-01-11T10:27:47;26.50;81.30
16744;DHT22;71724;-33.900;151.182;2024-01-11T10:30:20;26.60;81.20
16744;DHT22;71724;-33.900;151.182;2024-01-11T10:32:49;26.50;81.10
16744;DHT22;71724;-33.900;151.182;2024-01-11T10:35:17;26.50;81.00
16744;DHT22;71724;-33.900;151.182;2024-01-11T10:37:45;26.50;80.80
16744;DHT22;71724;-33.900;151.182;2024-01-11T10:40:15;26.50;80.80
16744;DHT22;71724;-33.900;151.182;2024-01-11T10:42:45;26.40;80.80
16744;DHT22;71724;-33.900;151.182;2024-01-11T10:45:17;26.50;80.80
16744;DHT22;71724;-33.900;151.182;2024-01-11T10:47:55;26.40;80.70
16744;DHT22;71724;-33.900;151.182;2024-01-11T10:50:26;26.40;80.70
16744;DHT22;71724;-33.900;151.182;2024-01-11T10:56:00;26.40;80.70
16744;DHT22;71724;-33.900;151.182;2024-01-11T10:58:29;26.40;80.70
16744;DHT22;71724;-33.900;151.182;2024-01-11T11:00:58;26.40;80.70
16744;DHT22;71724;-33.900;151.182;2024-01-11T11:03:26;26.40;80.70
16744;DHT22;71724;-33.900;151.182;2024-01-11T11:05:55;26.40;80.70
16744;DHT22;71724;-33.900;151.182;2024-01-11T11:08:24;26.40;80.80
16744;DHT22;71724;-33.900;151.182;2024-01-11T11:11:01;26.40;80.80
16744;DHT22;71724;-33.900;151.182;2024-01-11T11:13:32;26.40;80.80
16744;DHT22;71724;-33.900;151.182;2024-01-11T11:16:01;26.30;80.80
16744;DHT22;71724;-33.900;151.182;2024-01-11T11:18:31;26.40;80.70
16744;DHT22;71724;-33.900;151.182;2024-01-11T11:21:02;26.40;80.60
16744;DHT22;71724;-33.900;151.182;2024-01-11T11:23:33;26.30;80.80
16744;DHT22;71724;-33.900;151.182;2024-01-11T11:26:06;26.30;80.80
16744;DHT22;71724;-33.900;151.182;2024-01-11T11:28:37;26.30;80.80
16744;DHT22;71724;-33.900;151.182;2024-01-11T11:31:05;26.30;80.80
16744;DHT22;71724;-33.900;151.182;2024-01-11T11:33:32;26.30;80.90
16744;DHT22;71724;-33.900;151.182;2024-01-11T11:36:00;26.30;80.90
16744;DHT22;71724;-33.900;151.182;2024-01-11T11:38:29;26.30;81.00
16744;DHT22;71724;-33.900;151.182;2024-01-11T11:41:01;26.30;81.00
16744;DHT22;71724;-33.900;151.182;2024-01-11T11:43:29;26.30;81.10
16744;DHT22;71724;-33.900;151.182;2024-01-11T11:45:56;26.20;81.10
16744;DHT22;71724;-33.900;151.182;2024-01-11T11:51:12;26.30;81.20
16744;DHT22;71724;-33.900;151.182;2024-01-11T11:53:42;26.20;81.20
16744;DHT22;71724;-33.900;151.182;2024-01-11T11:56:13;26.30;81.30
16744;DHT22;71724;-33.900;151.182;2024-01-11T11:58:44;26.20;81.30
16744;DHT22;71724;-33.900;151.182;2024-01-11T12:01:14;26.20;81.30
16744;DHT22;71724;-33.900;151.182;2024-01-11T12:03:43;26.20;81.40
16744;DHT22;71724;-33.900;151.182;2024-01-11T12:06:18;26.20;81.30
16744;DHT22;71724;-33.900;151.182;2024-01-11T12:08:47;26.20;81.30
16744;DHT22;71724;-33.900;151.182;2024-01-11T12:11:23;26.10;81.40
16744;DHT22;71724;-33.900;151.182;2024-01-11T12:13:51;26.10;81.40
16744;DHT22;71724;-33.900;151.182;2024-01-11T12:16:20;26.10;81.50
16744;DHT22;71724;-33.900;151.182;2024-01-11T12:18:49;26.10;81.40
16744;DHT22;71724;-33.900;151.182;2024-01-11T12:21:16;26.00;81.60
16744;DHT22;71724;-33.900;151.182;2024-01-11T12:23:44;26.00;81.50
16744;DHT22;71724;-33.900;151.182;2024-01-11T12:26:12;26.00;81.60
16744;DHT22;71724;-33.900;151.182;2024-01-11T12:28:41;26.00;81.50
16744;DHT22;71724;-33.900;151.182;2024-01-11T12:31:09;26.00;81.60
16744;DHT22;71724;-33.900;151.182;2024-01-11T12:33:40;26.00;81.70
16744;DHT22;71724;-33.900;151.182;2024-01-11T12:36:09;25.90;81.60
16744;DHT22;71724;-33.900;151.182;2024-01-11T12:38:37;26.00;81.70
16744;DHT22;71724;-33.900;151.182;2024-01-11T12:41:08;26.00;81.80
16744;DHT22;71724;-33.900;151.182;2024-01-11T12:43:37;26.00;81.80
16744;DHT22;71724;-33.900;151.182;2024-01-11T12:46:04;25.90;81.90
16744;DHT22;71724;-33.900;151.182;2024-01-11T12:48:32;25.90;81.90
16744;DHT22;71724;-33.900;151.182;2024-01-11T12:50:59;25.90;81.90
16744;DHT22;71724;-33.900;151.182;2024-01-11T12:53:27;25.90;81.90
16744;DHT22;71724;-33.900;151.182;2024-01-11T12:56:07;25.90;81.90
16744;DHT22;71724;-33.900;151.182;2024-01-11T12:58:37;25.90;81.80
16744;DHT22;71724;-33.900;151.182;2024-01-11T13:01:06;25.90;81.90
16744;DHT22;71724;-33.900;151.182;2024-01-11T13:03:38;25.90;81.80
16744;DHT22;71724;-33.900;151.182;2024-01-11T13:06:06;25.90;81.90
16744;DHT22;71724;-33.900;151.182;2024-01-11T13:08:35;25.90;81.90
16744;DHT22;71724;-33.900;151.182;2024-01-11T13:11:04;25.90;81.90
16744;DHT22;71724;-33.900;151.182;2024-01-11T13:13:35;25.90;81.90
16744;DHT22;71724;-33.900;151.182;2024-01-11T13:16:03;25.90;82.00
16744;DHT22;71724;-33.900;151.182;2024-01-11T13:18:37;25.90;82.00
16744;DHT22;71724;-33.900;151.182;2024-01-11T13:21:04;25.90;82.00
16744;DHT22;71724;-33.900;151.182;2024-01-11T13:23:33;25.80;81.90
16744;DHT22;71724;-33.900;151.182;2024-01-11T13:26:00;25.80;82.00
16744;DHT22;71724;-33.900;151.182;2024-01-11T13:28:28;25.80;82.00
16744;DHT22;71724;-33.900;151.182;2024-01-11T13:30:56;25.80;82.00
16744;DHT22;71724;-33.900;151.182;2024-01-11T13:33:23;25.80;82.10
16744;DHT22;71724;-33.900;151.182;2024-01-11T13:35:55;25.80;82.10
16744;DHT22;71724;-33.900;151.182;2024-01-11T13:38:28;25.80;82.20
16744;DHT22;71724;-33.900;151.182;2024-01-11T13:40:55;25.80;82.10
16744;DHT22;71724;-33.900;151.182;2024-01-11T13:43:23;25.80;82.20
16744;DHT22;71724;-33.900;151.182;2024-01-11T13:45:50;25.80;82.20
16744;DHT22;71724;-33.900;151.182;2024-01-11T13:48:17;25.80;82.20
16744;DHT22;71724;-33.900;151.182;2024-01-11T13:50:45;25.80;82.30
16744;DHT22;71724;-33.900;151.182;2024-01-11T13:53:12;25.70;82.30
16744;DHT22;71724;-33.900;151.182;2024-01-11T13:55:40;25.70;82.50
16744;DHT22;71724;-33.900;151.182;2024-01-11T13:58:08;25.70;82.70
16744;DHT22;71724;-33.900;151.182;2024-01-11T14:00:35;25.60;82.70
16744;DHT22;71724;-33.900;151.182;2024-01-11T14:03:03;25.70;82.70
16744;DHT22;71724;-33.900;151.182;2024-01-11T14:05:31;25.60;82.60
16744;DHT22;71724;-33.900;151.182;2024-01-11T14:07:59;25.70;82.70
16744;DHT22;71724;-33.900;151.182;2024-01-11T14:10:27;25.60;82.80
16744;DHT22;71724;-33.900;151.182;2024-01-11T14:12:55;25.60;82.70
16744;DHT22;71724;-33.900;151.182;2024-01-11T14:15:22;25.60;82.80
16744;DHT22;71724;-33.900;151.182;2024-01-11T14:17:54;25.60;83.00
16744;DHT22;71724;-33.900;151.182;2024-01-11T14:20:21;25.50;83.00
16744;DHT22;71724;-33.900;151.182;2024-01-11T14:22:50;25.60;83.00
16744;DHT22;71724;-33.900;151.182;2024-01-11T14:25:24;25.60;83.10
16744;DHT22;71724;-33.900;151.182;2024-01-11T14:27:55;25.60;83.10
16744;DHT22;71724;-33.900;151.182;2024-01-11T14:30:23;25.50;83.20
16744;DHT22;71724;-33.900;151.182;2024-01-11T14:32:51;25.50;83.10
16744;DHT22;71724;-33.900;151.182;2024-01-11T14:35:18;25.50;83.40
16744;DHT22;71724;-33.900;151.182;2024-01-11T14:37:46;25.50;83.30
16744;DHT22;71724;-33.900;151.182;2024-01-11T14:40:14;25.40;83.20
16744;DHT22;71724;-33.900;151.182;2024-01-11T14:42:41;25.50;83.50
16744;DHT22;71724;-33.900;151.182;2024-01-11T14:45:09;25.40;83.50
16744;DHT22;71724;-33.900;151.182;2024-01-11T14:47:36;25.50;83.50
16744;DHT22;71724;-33.900;151.182;2024-01-11T14:50:04;25.50;83.50
16744;DHT22;71724;-33.900;151.182;2024-01-11T14:52:36;25.40;83.50
16744;DHT22;71724;-33.900;151.182;2024-01-11T14:55:06;25.50;83.50
16744;DHT22;71724;-33.900;151.182;2024-01-11T14:57:38;25.40;83.60
16744;DHT22;71724;-33.900;151.182;2024-01-11T15:00:06;25.40;83.70